WXM80 ListenWXM80 Stop

You find our weather info also at:

UK Metoffice

WeatherCloud

Weather Underground

Northeastern Weather Network

AWEKAS

Citizen Weather Observer Program (CWOP)

HAMweather, WeatherForYou, PWS Weather


Weather Underground History page Text

Daily Summary for February 5, 2016 Units:  English    Metric   Both
« Previous Day
Next Day »
Daily Weekly Monthly Yearly Custom
  High: Low: Average:
Temperature: 41.5 °F 30.8 °F 34.6 °F
Dew Point: 35.5 °F 23.1 °F 30.3 °F
Humidity: 97 % 70 % 85 %
Wind Speed: 11.6 mph 0.0 mph 4.4 mph
Wind Gust: 19.6 mph - -
Wind:- - SW
Pressure: 30.30 in 29.99 in -
Precipitation: 0.59 in    
Historical Graphs
 
 
Tabular Data for February 5, 2016
Time Temperature Dew Point Pressure Wind Wind Speed Wind Gust Humidity Rainfall Rate (Hourly)
00:03 41.2 °F 35.5 °F 30.03 in North 4.0 mph 8.1 mph 80 % 0.01 in
00:13 41.1 °F 35.4 °F 30.03 in North 3.1 mph 5.0 mph 80 % 0.00 in
00:15 41.1 °F 35.4 °F 30.03 in NNE 4.6 mph 6.0 mph 80 % 0.00 in
00:20 41.1 °F 35.1 °F 30.02 in North 5.7 mph 7.0 mph 79 % 0.00 in
00:25 41.1 °F 35.1 °F 30.03 in NE 3.1 mph 4.6 mph 79 % 0.00 in
00:30 41.1 °F 35.1 °F 30.03 in NNW 3.2 mph 6.9 mph 79 % 0.00 in
00:36 41.1 °F 34.8 °F 30.03 in NE 3.9 mph 9.2 mph 78 % 0.00 in
00:41 41.1 °F 35.1 °F 30.03 in NNE 4.5 mph 5.8 mph 79 % 0.00 in
00:46 41.1 °F 34.8 °F 30.03 in NNE 4.0 mph 8.1 mph 78 % 0.00 in
00:51 41.1 °F 34.8 °F 30.03 in NNE 4.4 mph 5.8 mph 78 % 0.00 in
00:56 41.1 °F 34.4 °F 30.03 in NE 5.2 mph 6.9 mph 77 % 0.00 in
01:01 41.2 °F 34.5 °F 30.03 in NNE 3.6 mph 5.8 mph 77 % 0.00 in
01:06 41.3 °F 34.3 °F 30.03 in NNE 5.1 mph 9.2 mph 76 % 0.00 in
01:11 41.4 °F 34.4 °F 30.02 in NNE 6.3 mph 9.2 mph 76 % 0.00 in
01:16 41.4 °F 34.1 °F 30.01 in NNE 7.8 mph 11.5 mph 75 % 0.00 in
01:21 41.4 °F 34.1 °F 30.02 in NNE 7.7 mph 11.5 mph 75 % 0.00 in
01:27 41.4 °F 33.7 °F 30.02 in North 7.5 mph 13.8 mph 74 % 0.00 in
01:32 41.5 °F 33.5 °F 30.02 in NNW 7.5 mph 15.0 mph 73 % 0.00 in
01:37 41.4 °F 33.7 °F 30.02 in North 8.2 mph 11.5 mph 74 % 0.00 in
01:42 41.4 °F 33.7 °F 30.03 in NNW 4.7 mph 10.4 mph 74 % 0.00 in
01:47 41.4 °F 34.4 °F 30.04 in NNW 1.5 mph 4.6 mph 76 % 0.00 in
01:52 41.4 °F 34.7 °F 30.03 in North 7.7 mph 10.4 mph 77 % 0.00 in
01:57 41.2 °F 34.2 °F 30.02 in North 7.2 mph 11.5 mph 76 % 0.00 in
02:02 41.0 °F 34.3 °F 30.03 in North 7.6 mph 10.4 mph 77 % 0.00 in
02:07 40.8 °F 34.5 °F 30.02 in North 5.6 mph 10.4 mph 78 % 0.00 in
02:12 40.5 °F 34.5 °F 30.03 in NNE 6.7 mph 11.5 mph 79 % 0.00 in
02:18 40.2 °F 34.5 °F 30.02 in NNE 7.2 mph 12.7 mph 80 % 0.00 in
02:23 40.0 °F 34.3 °F 30.02 in NNE 8.7 mph 13.8 mph 80 % 0.00 in
02:28 39.8 °F 34.4 °F 30.03 in NNE 6.8 mph 11.5 mph 81 % 0.00 in
02:33 39.6 °F 33.9 °F 30.03 in NE 11.3 mph 13.8 mph 80 % 0.00 in
02:38 39.5 °F 34.2 °F 30.01 in NNE 11.6 mph 17.3 mph 81 % 0.00 in
02:43 39.2 °F 34.2 °F 30.02 in NE 8.3 mph 13.0 mph 82 % 0.00 in
02:48 39.0 °F 34.3 °F 30.01 in NNE 8.9 mph 16.1 mph 83 % 0.00 in
02:53 38.8 °F 34.4 °F 30.00 in NNE 8.6 mph 11.5 mph 84 % 0.00 in
02:58 38.7 °F 34.3 °F 29.99 in NNE 11.1 mph 16.1 mph 84 % 0.00 in
03:03 38.5 °F 34.4 °F 30.03 in NNE 5.7 mph 13.8 mph 85 % 0.00 in
03:09 38.4 °F 34.3 °F 30.03 in NNE 7.6 mph 12.0 mph 85 % 0.00 in
03:14 38.2 °F 34.4 °F 30.02 in North 6.3 mph 11.5 mph 86 % 0.01 in
03:19 37.9 °F 33.8 °F 30.01 in NE 9.7 mph 15.0 mph 85 % 0.02 in
03:24 37.3 °F 33.5 °F 30.03 in NNW 6.5 mph 11.5 mph 86 % 0.04 in
03:29 37.0 °F 33.5 °F 30.05 in NNE 3.8 mph 6.0 mph 87 % 0.05 in
03:34 36.8 °F 33.6 °F 30.04 in North 4.6 mph 10.4 mph 88 % 0.05 in
03:39 36.4 °F 33.5 °F 30.03 in NNE 4.5 mph 9.2 mph 89 % 0.06 in
03:54 34.9 °F 32.5 °F 30.03 in NNE 6.3 mph 8.1 mph 91 % 0.10 in
04:00 34.7 °F 32.3 °F 30.02 in NNE 5.9 mph 11.5 mph 91 % 0.11 in
04:05 34.5 °F 32.4 °F 30.02 in NE 6.0 mph 13.8 mph 92 % 0.11 in
04:10 34.4 °F 32.6 °F 30.02 in North 4.8 mph 9.2 mph 93 % 0.12 in
04:15 34.3 °F 32.5 °F 30.02 in NNE 5.9 mph 11.5 mph 93 % 0.12 in
04:20 34.2 °F 32.4 °F 30.02 in North 6.0 mph 9.2 mph 93 % 0.12 in
04:25 34.1 °F 32.3 °F 30.02 in NE 3.9 mph 5.8 mph 93 % 0.10 in
04:30 33.9 °F 32.4 °F 30.01 in North 6.0 mph 11.5 mph 94 % 0.10 in
04:35 33.8 °F 32.3 °F 30.01 in North 6.6 mph 9.2 mph 94 % 0.09 in
04:40 33.8 °F 32.3 °F 30.01 in NNE 6.6 mph 11.5 mph 94 % 0.10 in
04:45 33.7 °F 32.2 °F 30.01 in NNW 10.0 mph 15.0 mph 94 % 0.09 in
04:51 33.7 °F 32.2 °F 30.02 in North 9.1 mph 12.7 mph 94 % 0.08 in
04:56 33.6 °F 32.3 °F 30.03 in North 8.3 mph 12.7 mph 95 % 0.08 in
05:01 33.5 °F 32.2 °F 30.02 in NNE 6.1 mph 9.2 mph 95 % 0.07 in
05:06 33.5 °F 32.2 °F 30.03 in NW 5.3 mph 9.2 mph 95 % 0.07 in
05:11 33.4 °F 32.1 °F 30.02 in NNE 4.7 mph 11.5 mph 95 % 0.07 in
05:16 33.3 °F 32.0 °F 30.01 in NNE 7.3 mph 11.5 mph 95 % 0.07 in
05:21 33.3 °F 32.0 °F 30.01 in NNW 4.5 mph 12.7 mph 95 % 0.06 in
05:26 33.3 °F 32.0 °F 30.02 in NNW 6.2 mph 9.2 mph 95 % 0.07 in
05:31 33.2 °F 31.9 °F 30.03 in NE 5.7 mph 10.4 mph 95 % 0.06 in
05:36 33.2 °F 31.9 °F 30.02 in North 5.3 mph 8.1 mph 95 % 0.06 in
05:42 33.3 °F 32.0 °F 30.02 in NNE 7.9 mph 9.2 mph 95 % 0.06 in
05:52 33.2 °F 32.2 °F 30.04 in North 5.9 mph 9.0 mph 96 % 0.06 in
05:57 33.2 °F 32.2 °F 30.05 in North 3.5 mph 8.1 mph 96 % 0.06 in
06:02 33.1 °F 32.1 °F 30.05 in North 2.4 mph 3.5 mph 96 % 0.06 in
06:07 33.1 °F 32.1 °F 30.05 in North 5.6 mph 8.1 mph 96 % 0.06 in
06:12 33.1 °F 32.1 °F 30.05 in North 6.3 mph 9.0 mph 96 % 0.07 in
06:17 33.0 °F 32.0 °F 30.05 in North 4.7 mph 8.1 mph 96 % 0.07 in
06:22 33.0 °F 32.0 °F 30.05 in North 3.8 mph 8.1 mph 96 % 0.09 in
06:27 33.0 °F 32.0 °F 30.05 in North 5.6 mph 8.1 mph 96 % 0.09 in
06:33 32.9 °F 31.9 °F 30.04 in NNE 4.6 mph 9.2 mph 96 % 0.10 in
06:38 32.9 °F 31.9 °F 30.04 in Calm   9.2 mph 96 % 0.10 in
06:43 32.9 °F 31.9 °F 30.04 in Calm     96 % 0.12 in
06:48 32.9 °F 31.9 °F 30.03 in North 4.5 mph 8.1 mph 96 % 0.12 in
06:53 32.9 °F 31.9 °F 30.03 in NE 5.3 mph 8.1 mph 96 % 0.13 in
06:58 32.9 °F 31.9 °F 30.04 in NNW 6.2 mph 10.0 mph 96 % 0.13 in
07:03 32.9 °F 31.9 °F 30.05 in North 4.1 mph 6.9 mph 96 % 0.13 in
07:08 32.9 °F 31.9 °F 30.06 in NNE 4.0 mph 7.0 mph 96 % 0.13 in
07:13 33.0 °F 32.0 °F 30.07 in North 2.6 mph 4.6 mph 96 % 0.12 in
07:19 33.0 °F 32.0 °F 30.08 in NNW 3.5 mph 8.0 mph 96 % 0.12 in
07:24 33.0 °F 32.0 °F 30.07 in NNW 3.9 mph 8.1 mph 96 % 0.12 in
07:29 33.0 °F 32.0 °F 30.07 in NNE 5.8 mph 10.4 mph 96 % 0.11 in
07:34 33.0 °F 32.0 °F 30.07 in NNW 6.3 mph 8.1 mph 96 % 0.11 in
07:39 33.0 °F 32.0 °F 30.07 in NNE 5.5 mph 8.1 mph 96 % 0.10 in
07:44 33.0 °F 32.0 °F 30.07 in NNE 6.2 mph 9.2 mph 96 % 0.09 in
07:49 33.0 °F 32.0 °F 30.07 in North 4.6 mph 9.2 mph 96 % 0.08 in
07:54 33.0 °F 32.0 °F 30.08 in North 4.0 mph 8.1 mph 96 % 0.08 in
07:59 32.9 °F 31.9 °F 30.08 in North 4.8 mph 8.1 mph 96 % 0.07 in
08:04 32.9 °F 31.9 °F 30.07 in NW 4.0 mph 5.0 mph 96 % 0.06 in
08:10 32.9 °F 31.9 °F 30.04 in NNW 3.4 mph 9.2 mph 96 % 0.05 in
08:15 32.9 °F 31.9 °F 30.05 in North 5.6 mph 5.8 mph 96 % 0.04 in
08:20 32.8 °F 31.8 °F 30.03 in NNW 7.4 mph 12.7 mph 96 % 0.04 in
08:25 32.7 °F 31.7 °F 30.02 in NNW 9.3 mph 14.0 mph 96 % 0.03 in
08:30 32.6 °F 31.6 °F 30.01 in NNW 7.6 mph 12.7 mph 96 % 0.03 in
08:40 32.6 °F 31.8 °F 30.04 in NNW 5.9 mph 9.2 mph 97 % 0.02 in
08:45 32.6 °F 31.8 °F 30.04 in North 5.8 mph 10.4 mph 97 % 0.02 in
08:50 32.6 °F 31.8 °F 30.06 in North 6.8 mph 9.2 mph 97 % 0.02 in
08:55 32.6 °F 31.8 °F 30.05 in North 6.5 mph 8.1 mph 97 % 0.02 in
09:01 32.6 °F 31.8 °F 30.06 in NNE 2.4 mph 4.6 mph 97 % 0.02 in
09:06 32.6 °F 31.8 °F 30.07 in North 4.5 mph 8.1 mph 97 % 0.02 in
09:11 32.6 °F 31.8 °F 30.06 in NNE 5.7 mph 10.4 mph 97 % 0.02 in
09:16 32.6 °F 31.8 °F 30.03 in North 5.7 mph 10.4 mph 97 % 0.02 in
09:21 32.6 °F 31.8 °F 30.01 in NNW 6.1 mph 9.2 mph 97 % 0.02 in
09:26 32.6 °F 31.8 °F 30.02 in NNW 6.3 mph 11.5 mph 97 % 0.01 in
09:31 32.6 °F 31.8 °F 30.05 in NNW 4.5 mph 11.5 mph 97 % 0.01 in
09:36 32.6 °F 31.8 °F 30.05 in North 5.1 mph 9.2 mph 97 % 0.02 in
09:41 32.6 °F 31.8 °F 30.04 in North 4.6 mph 6.9 mph 97 % 0.02 in
09:46 32.7 °F 31.9 °F 30.04 in North 4.9 mph 10.4 mph 97 % 0.02 in
09:52 32.7 °F 31.9 °F 30.07 in WNW 4.0 mph 11.5 mph 97 % 0.02 in
09:57 32.7 °F 31.9 °F 30.07 in NNW 3.2 mph 5.8 mph 97 % 0.01 in
10:02 32.7 °F 31.9 °F 30.09 in North 1.0 mph 3.5 mph 97 % 0.01 in
10:07 32.8 °F 32.0 °F 30.10 in NNW 2.0 mph 8.1 mph 97 % 0.02 in
10:12 32.8 °F 32.0 °F 30.09 in North 3.4 mph 5.8 mph 97 % 0.02 in
10:17 32.8 °F 32.0 °F 30.10 in NNE 3.1 mph 6.0 mph 97 % 0.02 in
10:22 32.8 °F 32.0 °F 30.08 in NNW 3.4 mph 6.0 mph 97 % 0.02 in
10:27 32.8 °F 32.0 °F 30.06 in North 1.4 mph 5.0 mph 97 % 0.02 in
10:32 32.8 °F 32.0 °F 30.02 in NNE 2.2 mph 6.0 mph 97 % 0.01 in
10:42 32.8 °F 32.0 °F 30.02 in NE 2.3 mph 3.5 mph 97 % 0.01 in
10:47 32.8 °F 32.0 °F 30.03 in NE 4.1 mph 4.6 mph 97 % 0.01 in
10:53 32.8 °F 32.0 °F 30.03 in NNE 2.3 mph 3.0 mph 97 % 0.02 in
10:58 32.8 °F 32.0 °F 30.00 in Calm     97 % 0.02 in
11:03 32.8 °F 32.0 °F 30.03 in Calm     97 % 0.02 in
11:08 32.8 °F 32.0 °F 30.04 in Calm     97 % 0.01 in
11:13 32.8 °F 32.0 °F 30.03 in Calm     97 % 0.01 in
11:18 32.8 °F 32.0 °F 30.03 in Calm     97 % 0.01 in
11:23 32.9 °F 32.1 °F 30.04 in Calm     97 % 0.01 in
11:28 32.9 °F 32.1 °F 30.02 in Calm     97 % 0.02 in
11:33 32.8 °F 32.0 °F 30.04 in Calm     97 % 0.02 in
11:44 32.8 °F 32.0 °F 30.03 in Calm     97 % 0.02 in
11:49 32.9 °F 32.1 °F 30.03 in Calm     97 % 0.02 in
11:54 32.9 °F 32.1 °F 30.04 in Calm     97 % 0.01 in
11:59 32.9 °F 32.1 °F 30.03 in Calm     97 % 0.01 in
12:04 32.9 °F 32.1 °F 30.03 in Calm     97 % 0.01 in
12:09 32.9 °F 32.1 °F 30.03 in Calm     97 % 0.01 in
12:14 32.9 °F 32.1 °F 30.02 in Calm     97 % 0.02 in
12:19 32.9 °F 32.1 °F 30.02 in Calm     97 % 0.02 in
12:24 32.9 °F 32.1 °F 30.02 in Calm     97 % 0.02 in
12:29 32.8 °F 32.0 °F 30.00 in Calm     97 % 0.01 in
12:35 32.8 °F 32.0 °F 30.00 in Calm     97 % 0.01 in
12:40 32.8 °F 31.8 °F 30.02 in Calm     96 % 0.01 in
12:45 32.8 °F 31.8 °F 30.01 in Calm     96 % 0.02 in
12:50 32.8 °F 31.8 °F 30.01 in Calm     96 % 0.02 in
12:55 32.8 °F 31.8 °F 30.02 in Calm     96 % 0.02 in
13:00 32.9 °F 31.6 °F 30.02 in Calm     95 % 0.02 in
13:05 32.9 °F 31.6 °F 30.03 in Calm     95 % 0.02 in
13:10 33.0 °F 31.7 °F 30.03 in Calm     95 % 0.02 in
13:15 33.3 °F 32.0 °F 30.03 in Calm     95 % 0.01 in
13:26 33.6 °F 32.1 °F 30.04 in Calm     94 % 0.02 in
13:31 33.8 °F 32.3 °F 30.05 in Calm     94 % 0.02 in
13:36 34.0 °F 32.2 °F 30.05 in Calm     93 % 0.02 in
13:41 34.1 °F 32.0 °F 30.05 in Calm     92 % 0.02 in
13:46 34.1 °F 32.0 °F 30.05 in Calm     92 % 0.01 in
13:51 34.2 °F 31.8 °F 30.05 in Calm     91 % 0.01 in
13:56 34.3 °F 31.9 °F 30.05 in Calm     91 % 0.02 in
14:01 34.4 °F 32.0 °F 30.05 in Calm     91 % 0.02 in
14:06 34.6 °F 31.7 °F 30.04 in Calm     89 % 0.02 in
14:12 34.8 °F 31.6 °F 30.03 in Calm     88 % 0.02 in
14:17 35.0 °F 31.5 °F 30.04 in Calm     87 % 0.02 in
14:22 35.2 °F 31.4 °F 30.05 in Calm     86 % 0.01 in
14:27 35.3 °F 31.2 °F 30.04 in NW 5.4 mph 9.2 mph 85 % 0.01 in
14:32 35.4 °F 31.0 °F 30.05 in North 4.6 mph 6.9 mph 84 % 0.01 in
14:37 35.5 °F 31.4 °F 30.05 in NNW 1.9 mph 5.0 mph 85 % 0.01 in
14:42 35.5 °F 31.1 °F 30.05 in NW 5.7 mph 15.0 mph 84 % 0.02 in
14:47 35.5 °F 30.5 °F 30.06 in NNW 5.4 mph 11.0 mph 82 % 0.02 in
14:52 35.5 °F 30.8 °F 30.06 in NW 1.0 mph 6.9 mph 83 % 0.02 in
14:57 35.4 °F 30.5 °F 30.06 in NNW 6.3 mph 9.2 mph 82 % 0.01 in
15:03 35.3 °F 30.4 °F 30.06 in NW 5.7 mph 11.5 mph 82 % 0.01 in
15:08 35.3 °F 30.4 °F 30.06 in NW 5.0 mph 11.5 mph 82 % 0.01 in
15:13 35.3 °F 30.1 °F 30.06 in NNW 4.5 mph 10.4 mph 81 % 0.01 in
15:18 35.4 °F 29.8 °F 30.07 in NW 4.5 mph 8.1 mph 80 % 0.01 in
15:23 35.5 °F 30.2 °F 30.07 in West 3.1 mph 8.1 mph 81 % 0.01 in
15:28 35.6 °F 30.0 °F 30.07 in WSW 6.0 mph 10.0 mph 80 % 0.02 in
15:33 35.7 °F 29.8 °F 30.07 in NW 3.3 mph 5.8 mph 79 % 0.02 in
15:38 35.7 °F 29.5 °F 30.08 in NNW 3.8 mph 8.1 mph 78 % 0.02 in
15:48 35.8 °F 29.9 °F 30.08 in NW 3.1 mph 6.9 mph 79 % 0.01 in
15:54 35.9 °F 30.0 °F 30.09 in NW 5.2 mph 9.2 mph 79 % 0.01 in
15:59 35.9 °F 30.0 °F 30.09 in NW 4.4 mph 7.0 mph 79 % 0.01 in
16:04 36.1 °F 29.6 °F 30.09 in WNW 5.8 mph 11.5 mph 77 % 0.01 in
16:09 36.1 °F 29.6 °F 30.09 in WNW 6.0 mph 10.4 mph 77 % 0.01 in
16:14 36.1 °F 29.6 °F 30.10 in WNW 2.4 mph 4.6 mph 77 % 0.01 in
16:19 36.1 °F 29.3 °F 30.10 in NNE 4.2 mph 9.2 mph 76 % 0.01 in
16:24 36.1 °F 29.6 °F 30.10 in WNW 7.6 mph 10.4 mph 77 % 0.00 in
16:29 36.1 °F 28.9 °F 30.10 in NW 7.3 mph 16.1 mph 75 % 0.00 in
16:34 36.1 °F 28.9 °F 30.11 in WNW 7.5 mph 13.0 mph 75 % 0.01 in
16:39 36.1 °F 28.9 °F 30.12 in NW 7.4 mph 19.6 mph 75 % 0.01 in
16:45 36.1 °F 28.9 °F 30.12 in NW 6.9 mph 13.0 mph 75 % 0.01 in
16:50 36.0 °F 29.2 °F 30.12 in NW 5.9 mph 10.4 mph 76 % 0.01 in
16:55 36.0 °F 29.2 °F 30.12 in WSW 6.0 mph 13.8 mph 76 % 0.01 in
17:00 35.9 °F 28.7 °F 30.12 in West 6.2 mph 17.0 mph 75 % 0.01 in
17:05 35.9 °F 28.4 °F 30.13 in WNW 8.3 mph 15.0 mph 74 % 0.01 in
17:10 35.9 °F 28.7 °F 30.13 in WSW 5.5 mph 11.5 mph 75 % 0.01 in
17:15 35.8 °F 28.6 °F 30.14 in NW 8.6 mph 11.5 mph 75 % 0.01 in
17:20 35.7 °F 28.6 °F 30.14 in West 4.4 mph 16.1 mph 75 % 0.01 in
17:25 35.7 °F 28.2 °F 30.14 in NW 8.1 mph 12.0 mph 74 % 0.01 in
17:30 35.7 °F 28.6 °F 30.15 in WNW 1.7 mph 7.0 mph 75 % 0.00 in
17:36 35.5 °F 29.0 °F 30.15 in West 3.7 mph 11.5 mph 77 % 0.00 in
17:41 35.4 °F 27.9 °F 30.16 in NW 5.9 mph 12.7 mph 74 % 0.00 in
17:46 35.4 °F 27.6 °F 30.16 in NE 5.4 mph 9.2 mph 73 % 0.00 in
17:51 35.3 °F 27.8 °F 30.17 in WNW 5.1 mph 11.5 mph 74 % 0.00 in
17:56 35.3 °F 27.2 °F 30.17 in NW 4.7 mph 9.2 mph 72 % 0.01 in
18:06 35.2 °F 27.1 °F 30.17 in WNW 4.9 mph 6.9 mph 72 % 0.01 in
18:11 35.2 °F 27.1 °F 30.18 in West 5.3 mph 11.5 mph 72 % 0.01 in
18:16 35.1 °F 26.6 °F 30.19 in NW 4.2 mph 8.1 mph 71 % 0.01 in
18:21 35.1 °F 27.3 °F 30.19 in NW 6.0 mph 10.0 mph 73 % 0.01 in
18:27 35.1 °F 27.0 °F 30.19 in West 7.6 mph 11.5 mph 72 % 0.01 in
18:32 35.1 °F 27.0 °F 30.20 in WNW 3.5 mph 6.9 mph 72 % 0.01 in
18:37 35.0 °F 27.2 °F 30.20 in WNW 6.3 mph 10.4 mph 73 % 0.01 in
18:42 34.9 °F 27.5 °F 30.20 in NW 4.7 mph 12.0 mph 74 % 0.01 in
18:47 34.8 °F 27.4 °F 30.20 in NNW 1.4 mph 10.4 mph 74 % 0.01 in
18:52 34.6 °F 26.5 °F 30.21 in WNW 6.2 mph 12.7 mph 72 % 0.01 in
18:57 34.6 °F 26.5 °F 30.21 in NW 4.4 mph 9.2 mph 72 % 0.00 in
19:02 34.6 °F 26.8 °F 30.21 in NW 6.0 mph 11.5 mph 73 % 0.00 in
19:07 34.4 °F 27.0 °F 30.22 in WNW 5.5 mph 11.0 mph 74 % 0.00 in
19:18 34.3 °F 26.2 °F 30.22 in WNW 5.6 mph 11.5 mph 72 % 0.00 in
19:23 34.3 °F 26.2 °F 30.23 in West 4.2 mph 10.4 mph 72 % 0.00 in
19:28 34.3 °F 25.9 °F 30.23 in WNW 6.2 mph 12.7 mph 71 % 0.00 in
19:33 34.2 °F 25.4 °F 30.23 in WSW 6.1 mph 11.0 mph 70 % 0.00 in
19:38 34.2 °F 25.4 °F 30.23 in NW 8.8 mph 13.8 mph 70 % 0.00 in
19:43 34.2 °F 26.1 °F 30.23 in West 5.8 mph 12.0 mph 72 % 0.00 in
19:48 34.2 °F 26.1 °F 30.24 in West 4.1 mph 6.9 mph 72 % 0.00 in
19:53 34.1 °F 26.0 °F 30.24 in NW 5.2 mph 11.0 mph 72 % 0.00 in
20:03 33.9 °F 25.8 °F 30.24 in WNW 6.5 mph 9.2 mph 72 % 0.00 in
20:09 33.8 °F 25.0 °F 30.24 in WNW 4.5 mph 8.1 mph 70 % 0.00 in
20:14 33.8 °F 25.0 °F 30.24 in NW 2.2 mph 10.4 mph 70 % 0.00 in
20:19 33.7 °F 25.3 °F 30.25 in NW 4.3 mph 9.2 mph 71 % 0.00 in
20:24 33.6 °F 25.2 °F 30.25 in NW 3.3 mph 9.0 mph 71 % 0.00 in
20:29 33.5 °F 24.8 °F 30.25 in West 4.2 mph 5.8 mph 70 % 0.00 in
20:34 33.4 °F 25.0 °F 30.25 in NW 3.7 mph 6.9 mph 71 % 0.00 in
20:39 33.4 °F 25.7 °F 30.25 in North 3.4 mph 10.4 mph 73 % 0.00 in
20:44 33.2 °F 25.5 °F 30.25 in WNW 6.9 mph 11.0 mph 73 % 0.00 in
20:54 33.2 °F 25.1 °F 30.25 in WNW 8.5 mph 12.0 mph 72 % 0.00 in
21:00 33.2 °F 25.1 °F 30.25 in WNW 6.4 mph 12.7 mph 72 % 0.01 in
21:05 33.1 °F 25.1 °F 30.25 in WNW 6.1 mph 13.8 mph 72 % 0.01 in
21:10 33.0 °F 25.0 °F 30.25 in NW 4.0 mph 11.5 mph 72 % 0.01 in
21:15 32.9 °F 25.2 °F 30.26 in WNW 3.2 mph 9.0 mph 73 % 0.01 in
21:20 32.8 °F 24.8 °F 30.26 in WSW 3.3 mph 8.1 mph 72 % 0.01 in
21:25 32.8 °F 24.4 °F 30.26 in WNW 2.5 mph 6.9 mph 71 % 0.01 in
21:30 32.6 °F 24.6 °F 30.27 in WNW 3.7 mph 6.9 mph 72 % 0.01 in
21:35 32.6 °F 24.6 °F 30.27 in NW 4.8 mph 6.0 mph 72 % 0.01 in
21:40 32.6 °F 25.2 °F 30.27 in NW 4.1 mph 7.0 mph 74 % 0.01 in
21:45 32.5 °F 25.1 °F 30.28 in WNW 5.2 mph 13.8 mph 74 % 0.01 in
21:51 32.4 °F 24.4 °F 30.28 in NW 3.6 mph 12.7 mph 72 % 0.01 in
22:01 32.4 °F 24.4 °F 30.28 in NW 4.0 mph 9.0 mph 72 % 0.00 in
22:06 32.3 °F 24.9 °F 30.28 in NW 2.5 mph 4.6 mph 74 % 0.00 in
22:11 32.2 °F 24.5 °F 30.28 in WNW 2.9 mph 8.1 mph 73 % 0.00 in
22:16 32.1 °F 24.4 °F 30.28 in NW 4.6 mph 12.0 mph 73 % 0.00 in
22:21 32.0 °F 24.6 °F 30.28 in NNW 4.6 mph 8.0 mph 74 % 0.00 in
22:26 32.0 °F 24.0 °F 30.28 in WNW 3.7 mph 9.2 mph 72 % 0.00 in
22:32 31.9 °F 23.9 °F 30.29 in WNW 3.1 mph 6.9 mph 72 % 0.00 in
22:37 31.8 °F 24.1 °F 30.30 in NW 3.6 mph 8.1 mph 73 % 0.00 in
22:42 31.7 °F 24.7 °F 30.30 in NW 2.6 mph 10.0 mph 75 % 0.00 in
22:47 31.7 °F 24.0 °F 30.30 in WNW 4.5 mph 10.0 mph 73 % 0.00 in
22:52 31.6 °F 23.6 °F 30.30 in NNW 5.5 mph 11.0 mph 72 % 0.00 in
22:57 31.5 °F 23.5 °F 30.29 in WNW 5.6 mph 11.0 mph 72 % 0.00 in
23:02 31.5 °F 23.5 °F 30.29 in NW 4.6 mph 10.4 mph 72 % 0.00 in
23:07 31.5 °F 23.5 °F 30.29 in WNW 3.8 mph 5.8 mph 72 % 0.00 in
23:12 31.5 °F 23.8 °F 30.29 in NW 2.4 mph 3.5 mph 73 % 0.00 in
23:17 31.4 °F 23.7 °F 30.30 in WNW 4.1 mph 6.0 mph 73 % 0.00 in
23:23 31.3 °F 23.6 °F 30.29 in NW 2.8 mph 6.9 mph 73 % 0.00 in
23:28 31.2 °F 24.2 °F 30.29 in NNW 2.6 mph 6.0 mph 75 % 0.00 in
23:33 31.1 °F 23.1 °F 30.29 in NNW 4.0 mph 10.4 mph 72 % 0.00 in
23:38 31.1 °F 24.1 °F 30.30 in North 3.1 mph 5.8 mph 75 % 0.00 in
23:43 31.1 °F 23.5 °F 30.30 in NNW 2.9 mph 5.8 mph 73 % 0.00 in
23:48 31.0 °F 24.0 °F 30.30 in NNW 5.0 mph 8.0 mph 75 % 0.00 in
23:53 30.9 °F 23.3 °F 30.30 in WNW 3.6 mph 6.9 mph 73 % 0.00 in
23:58 30.8 °F 23.8 °F 30.30 in NNW 1.4 mph 4.0 mph 75 % 0.00 in
Crab Meadow Weather
Compliments of Weather Underground - 3 mb

Script developed by  Jim McMurry - jmcmurry@mwt.net Adapted for the template by  Wim van der Kuil - Leuven-Template.eu

Weather Terms: Winter Storms - These are weather hazards associated with freezing or frozen precipitation (freezing rain, sleet, snow) or combined effects of winter precipitation and strong winds.